Time;durP1;ratioP1;P1;durP2;ratioP2;P2;SDS_P1;SDS_P2;PMS_P1;PMS_P2;Temp;Humidity;BMP_temperature;BMP_pressure;BME280_temperature;BME280_humidity;BME280_pressure;Samples;Min_cycle;Max_cycle;Signal;HPM_P1;HPM_P2
2024/01/15 00:00:56;;;;;;;11.35;6.53;;;;;;;12.80;100.00;100272.78;10370112;28;96980;-80
2024/01/15 00:06:01;;;;;;;11.45;7.22;;;;;;;12.78;100.00;100269.34;10370884;28;97079;-80
2024/01/15 00:11:05;;;;;;;;;;;;;;;12.77;100.00;100270.28;10371545;28;96822;-80
2024/01/15 00:16:08;;;;;;;8.45;5.22;;;;;;;12.81;100.00;100266.56;10370481;28;97417;-80
2024/01/15 00:21:13;;;;;;;9.05;5.93;;;;;;;12.86;100.00;100264.53;10369756;28;96718;-80
2024/01/15 00:26:17;;;;;;;9.75;5.82;;;;;;;12.85;100.00;100251.41;10370441;28;96780;-80
2024/01/15 00:31:20;;;;;;;9.60;6.35;;;;;;;12.89;100.00;100251.22;10370529;28;97254;-80
2024/01/15 00:36:25;;;;;;;8.70;6.10;;;;;;;12.92;100.00;100247.56;10371102;28;96964;-80
2024/01/15 00:41:28;;;;;;;10.90;6.45;;;;;;;12.95;100.00;100242.09;10370037;28;97420;-80
2024/01/15 00:46:32;;;;;;;11.48;6.40;;;;;;;12.88;100.00;100238.09;10369693;28;96892;-80
2024/01/15 00:51:36;;;;;;;13.63;6.95;;;;;;;12.82;100.00;100244.53;10369081;28;96765;-81
2024/01/15 00:56:40;;;;;;;;;;;;;;;12.69;100.00;100219.63;10369919;28;97044;-80
2024/01/15 01:01:45;;;;;;;13.57;6.90;;;;;;;12.67;100.00;100220.66;10369901;28;96701;-80
2024/01/15 01:06:50;;;;;;;13.18;7.10;;;;;;;12.59;100.00;100205.13;10369507;28;97161;-80
2024/01/15 01:11:54;;;;;;;;;;;;;;;12.66;100.00;100193.38;10369859;28;96709;-80
2024/01/15 01:16:57;;;;;;;10.38;6.22;;;;;;;12.74;100.00;100193.03;10369061;28;97210;-80
2024/01/15 01:22:02;;;;;;;14.25;7.32;;;;;;;12.85;100.00;100177.47;10369224;28;97244;-80
2024/01/15 01:27:05;;;;;;;;;;;;;;;12.81;100.00;100171.50;10370921;28;96813;-80
2024/01/15 01:32:09;;;;;;;12.95;5.63;;;;;;;12.80;100.00;100163.66;10370949;28;96800;-80
2024/01/15 01:37:14;;;;;;;9.38;5.85;;;;;;;12.82;100.00;100160.03;10375792;28;96969;-80
2024/01/15 01:42:17;;;;;;;11.20;6.43;;;;;;;12.78;100.00;100162.88;10374197;28;97302;-80
2024/01/15 01:47:21;;;;;;;10.27;6.60;;;;;;;12.83;100.00;100169.63;10375078;28;96735;-80
2024/01/15 01:52:26;;;;;;;11.25;6.18;;;;;;;12.85;100.00;100153.72;10375374;28;96706;-80
2024/01/15 01:57:31;;;;;;;11.13;6.40;;;;;;;12.83;100.00;100143.22;10375107;28;97158;-80
2024/01/15 02:02:35;;;;;;;11.00;6.47;;;;;;;12.85;100.00;100138.72;10375192;28;96627;-80
2024/01/15 02:07:40;;;;;;;9.15;6.18;;;;;;;12.83;100.00;100142.38;10374830;28;97061;-79
2024/01/15 02:12:43;;;;;;;;;;;;;;;12.80;100.00;100134.59;10375199;28;96684;-80
2024/01/15 02:18:00;;;;;;;9.20;5.80;;;;;;;12.81;100.00;100131.06;10374897;28;96894;-82
2024/01/15 02:23:11;;;;;;;10.93;6.30;;;;;;;12.75;100.00;100126.06;10374037;28;96792;-81
2024/01/15 02:28:18;;;;;;;10.05;6.32;;;;;;;12.78;100.00;100142.63;10374334;28;97025;-82
2024/01/15 02:33:24;;;;;;;11.05;6.57;;;;;;;12.83;100.00;100142.38;10331775;28;96919;-82
2024/01/15 02:38:31;;;;;;;11.60;6.57;;;;;;;12.80;100.00;100137.25;10339740;28;97415;-81
2024/01/15 02:43:35;;;;;;;10.60;6.85;;;;;;;12.77;100.00;100143.56;10372469;28;96792;-81
2024/01/15 02:48:38;;;;;;;10.40;6.43;;;;;;;12.73;100.00;100134.06;10372926;28;96909;-81
2024/01/15 02:53:43;;;;;;;11.40;6.95;;;;;;;12.77;100.00;100134.78;10373530;28;96537;-81
2024/01/15 02:58:50;;;;;;;9.73;6.25;;;;;;;12.76;100.00;100123.34;10373101;28;96943;-81
2024/01/15 03:03:55;;;;;;;10.75;6.60;;;;;;;12.85;100.00;100124.66;10372995;28;96658;-82
2024/01/15 03:09:00;;;;;;;11.77;6.97;;;;;;;12.72;100.00;100121.81;10373409;28;96759;-82
2024/01/15 03:14:04;;;;;;;12.40;6.75;;;;;;;12.74;100.00;100119.94;10372474;28;96997;-81
2024/01/15 03:19:08;;;;;;;10.50;6.32;;;;;;;12.77;100.00;100124.22;10371868;28;97454;-81
2024/01/15 03:24:13;;;;;;;10.07;6.20;;;;;;;12.80;100.00;100117.00;10371748;28;97086;-81
2024/01/15 03:29:16;;;;;;;11.45;6.78;;;;;;;12.77;100.00;100106.59;10372172;28;96844;-81
2024/01/15 03:34:20;;;;;;;27.17;6.18;;;;;;;12.64;100.00;100097.56;10371515;28;96682;-81
2024/01/15 03:39:25;;;;;;;23.42;5.93;;;;;;;12.57;100.00;100096.13;10372094;28;97528;-81
2024/01/15 03:44:28;;;;;;;20.25;6.57;;;;;;;12.57;100.00;100087.38;10371682;28;97181;-81
2024/01/15 03:49:32;;;;;;;10.32;6.32;;;;;;;12.62;100.00;100080.09;10371191;28;96938;-81
2024/01/15 03:54:37;;;;;;;11.52;6.55;;;;;;;12.62;100.00;100067.72;10371097;28;96628;-81
2024/01/15 03:59:44;;;;;;;10.18;6.28;;;;;;;12.65;100.00;100064.13;10372135;28;97018;-81
2024/01/15 04:04:47;;;;;;;10.43;6.78;;;;;;;12.65;100.00;100061.47;10370583;28;96696;-81
2024/01/15 04:09:53;;;;;;;10.50;5.97;;;;;;;12.67;100.00;100052.53;10370779;28;96798;-82
2024/01/15 04:14:57;;;;;;;11.35;6.55;;;;;;;12.76;100.00;100057.34;10369956;28;97091;-82
2024/01/15 04:20:00;;;;;;;12.88;6.32;;;;;;;12.79;100.00;100053.69;10370876;28;96989;-81
2024/01/15 04:25:07;;;;;;;10.32;6.18;;;;;;;12.77;100.00;100058.19;10370740;28;97427;-82
2024/01/15 04:30:12;;;;;;;11.93;6.93;;;;;;;12.76;100.00;100048.59;10370781;28;96769;-81
2024/01/15 04:35:15;;;;;;;10.40;6.53;;;;;;;12.75;100.00;100044.22;10370247;28;96756;-82
2024/01/15 04:40:20;;;;;;;9.82;6.07;;;;;;;12.79;100.00;100037.84;10370157;28;96932;-82
2024/01/15 04:45:28;;;;;;;13.10;6.63;;;;;;;12.82;100.00;100040.34;10369720;28;97116;-79
2024/01/15 04:50:31;;;;;;;9.85;6.20;;;;;;;12.80;100.00;100047.47;10370880;28;96785;-79
2024/01/15 04:55:36;;;;;;;36.42;5.95;;;;;;;12.68;100.00;100058.66;10369704;28;96857;-80
2024/01/15 05:00:40;;;;;;;13.45;5.97;;;;;;;12.68;100.00;100056.88;10369969;28;96667;-81
2024/01/15 05:05:44;;;;;;;11.00;6.63;;;;;;;12.74;100.00;100050.44;10368542;28;97324;-81
2024/01/15 05:10:48;;;;;;;9.55;5.97;;;;;;;12.76;100.00;100056.50;10376266;28;97341;-81
2024/01/15 05:15:54;;;;;;;8.68;5.78;;;;;;;12.72;100.00;100055.81;10376140;28;97292;-82
2024/01/15 05:20:58;;;;;;;10.13;6.20;;;;;;;12.74;100.00;100046.00;10376536;28;98055;-81
2024/01/15 05:26:03;;;;;;;9.40;5.63;;;;;;;12.81;100.00;100041.28;10376254;28;96688;-81
2024/01/15 05:31:06;;;;;;;11.05;5.75;;;;;;;12.91;100.00;100031.94;10376004;28;96681;-81
2024/01/15 05:36:10;;;;;;;10.50;6.15;;;;;;;12.95;100.00;100026.41;10376068;28;97161;-81
2024/01/15 05:41:15;;;;;;;10.25;5.85;;;;;;;12.89;100.00;100032.03;10376417;28;97222;-82
2024/01/15 05:46:18;;;;;;;11.23;6.07;;;;;;;12.99;100.00;100035.00;10375136;28;97380;-80
2024/01/15 05:51:21;;;;;;;8.73;5.25;;;;;;;12.98;100.00;100035.97;10375358;28;97555;-80
2024/01/15 05:56:26;;;;;;;8.70;5.05;;;;;;;13.07;100.00;100046.03;10374025;28;96785;-80
2024/01/15 06:01:30;;;;;;;29.08;5.32;;;;;;;12.88;100.00;100040.84;10366563;28;97948;-81
2024/01/15 06:06:33;;;;;;;6.85;4.05;;;;;;;13.12;100.00;100046.66;10333402;28;96689;-81
2024/01/15 06:11:38;;;;;;;7.10;3.75;;;;;;;13.43;100.00;100052.00;10353561;28;96630;-81
2024/01/15 06:16:43;;;;;;;7.22;4.15;;;;;;;13.48;100.00;100053.44;10374023;28;97206;-81
2024/01/15 06:21:46;;;;;;;7.68;4.47;;;;;;;13.58;100.00;100056.44;10374625;28;96843;-81
2024/01/15 06:26:51;;;;;;;4.63;2.80;;;;;;;13.80;100.00;100054.31;10374269;28;97262;-81
2024/01/15 06:31:54;;;;;;;5.30;2.83;;;;;;;13.87;100.00;100047.75;10375086;28;97305;-80
2024/01/15 06:36:58;;;;;;;5.57;3.00;;;;;;;13.96;100.00;100046.38;10373911;28;96835;-80
2024/01/15 06:42:05;;;;;;;4.88;2.67;;;;;;;14.07;100.00;100047.50;10373959;28;96999;-80
2024/01/15 06:47:14;;;;;;;3.97;2.00;;;;;;;14.23;100.00;100052.78;10372347;28;96875;-80
2024/01/15 06:52:17;;;;;;;5.38;2.20;;;;;;;14.34;100.00;100043.25;10373339;28;96897;-81
2024/01/15 06:57:23;;;;;;;4.25;2.15;;;;;;;14.39;100.00;100045.63;10372983;28;96828;-81
2024/01/15 07:02:27;;;;;;;3.55;2.03;;;;;;;14.58;100.00;100057.72;10372936;28;96708;-82
2024/01/15 07:07:31;;;;;;;4.30;1.17;;;;;;;14.73;100.00;100055.97;10372892;28;96684;-81
2024/01/15 07:12:38;;;;;;;6.13;1.80;;;;;;;14.77;100.00;100060.13;10372967;28;96664;-82
2024/01/15 07:17:44;;;;;;;2.42;1.48;;;;;;;14.79;100.00;100055.59;10372631;28;96861;-81
2024/01/15 07:22:47;;;;;;;3.88;1.33;;;;;;;14.83;100.00;100059.75;10373688;28;96953;-81
2024/01/15 07:27:53;;;;;;;2.90;1.60;;;;;;;14.77;100.00;100065.41;10372208;28;96951;-81
2024/01/15 07:32:57;;;;;;;4.30;1.30;;;;;;;14.83;100.00;100065.06;10371732;28;96686;-81
2024/01/15 07:38:00;;;;;;;3.03;1.30;;;;;;;14.85;100.00;100062.31;10370501;28;97015;-81
2024/01/15 07:43:05;;;;;;;3.13;1.40;;;;;;;14.98;100.00;100066.78;10371984;28;97354;-81
2024/01/15 07:48:09;;;;;;;2.72;0.90;;;;;;;15.02;100.00;100065.66;10371218;28;97555;-81
2024/01/15 07:53:13;;;;;;;2.97;1.40;;;;;;;14.93;100.00;100068.84;10371361;28;97133;-80
2024/01/15 07:58:17;;;;;;;3.50;1.20;;;;;;;15.07;100.00;100068.00;10371565;28;97041;-81
2024/01/15 08:03:20;;;;;;;;;;;;;;;15.09;100.00;100082.88;10371935;28;97044;-81
2024/01/15 08:08:24;;;;;;;2.22;0.75;;;;;;;15.20;100.00;100082.25;10371106;28;97571;-82
2024/01/15 08:13:34;;;;;;;3.70;1.10;;;;;;;15.22;100.00;100083.84;10371726;28;96822;-81
2024/01/15 08:18:38;;;;;;;2.03;1.20;;;;;;;15.27;100.00;100087.09;10370562;28;96662;-81
2024/01/15 08:23:41;;;;;;;1.17;1.00;;;;;;;15.32;100.00;100087.66;10370922;28;96898;-81
2024/01/15 08:28:46;;;;;;;3.42;0.88;;;;;;;15.28;100.00;100093.25;10369162;28;96701;-79
2024/01/15 08:33:50;;;;;;;3.22;1.10;;;;;;;15.34;100.00;100092.84;10370118;28;97270;-82
2024/01/15 08:38:54;;;;;;;0.98;0.80;;;;;;;15.33;100.00;100094.69;10370379;28;96815;-82
2024/01/15 08:43:59;;;;;;;1.38;0.95;;;;;;;15.32;100.00;100106.22;10374581;28;97392;-80
2024/01/15 08:49:04;;;;;;;1.38;0.52;;;;;;;15.48;100.00;100106.97;10377345;28;96804;-80
2024/01/15 08:54:09;;;;;;;3.80;1.40;;;;;;;15.44;100.00;100105.47;10377995;28;97473;-82
2024/01/15 08:59:17;;;;;;;1.77;0.95;;;;;;;15.49;100.00;100105.19;10377246;28;96857;-81
2024/01/15 09:04:21;;;;;;;2.67;0.77;;;;;;;15.51;100.00;100106.78;10377904;28;96810;-81
2024/01/15 09:09:26;;;;;;;1.33;0.70;;;;;;;15.64;100.00;100112.19;10376925;28;96557;-81
2024/01/15 09:14:34;;;;;;;1.10;0.60;;;;;;;15.66;100.00;100119.13;10376741;28;96739;-81
2024/01/15 09:19:40;;;;;;;2.58;0.68;;;;;;;15.73;100.00;100119.56;10375104;28;97189;-81
2024/01/15 09:24:44;;;;;;;;;;;;;;;15.77;100.00;100121.06;10376943;28;97214;-80
2024/01/15 09:29:49;;;;;;;1.02;0.73;;;;;;;15.76;100.00;100128.19;10375813;28;96738;-80
2024/01/15 09:34:52;;;;;;;;;;;;;;;15.79;100.00;100133.31;10376266;28;96865;-82
2024/01/15 09:39:56;;;;;;;1.80;0.60;;;;;;;15.82;100.00;100134.94;10376088;28;97266;-82
2024/01/15 09:45:03;;;;;;;2.33;0.57;;;;;;;15.84;100.00;100147.13;10383472;22;96955;-81
2024/01/15 09:50:07;;;;;;;1.08;0.45;;;;;;;15.86;100.00;100144.38;10459258;27;96970;-79
2024/01/15 09:55:11;;;;;;;1.70;0.52;;;;;;;15.81;100.00;100147.34;10459261;27;96972;-79
2024/01/15 10:00:19;;;;;;;3.83;0.70;;;;;;;15.90;100.00;100138.81;10459139;27;96915;-79
2024/01/15 10:05:23;;;;;;;0.75;0.25;;;;;;;15.98;100.00;100135.63;10458694;27;96734;-79
2024/01/15 10:10:26;;;;;;;3.80;0.60;;;;;;;16.12;100.00;100146.22;10457710;27;96941;-79
2024/01/15 10:15:34;;;;;;;0.77;0.50;;;;;;;16.02;100.00;100149.56;10458351;27;96740;-79
2024/01/15 10:20:38;;;;;;;0.65;0.30;;;;;;;16.07;100.00;100158.09;10458417;27;96629;-82
2024/01/15 10:25:43;;;;;;;0.95;0.65;;;;;;;16.20;100.00;100170.50;10458178;27;96894;-81
2024/01/15 10:30:49;;;;;;;1.92;0.90;;;;;;;16.27;100.00;100177.09;10435224;27;96863;-82
2024/01/15 10:35:56;;;;;;;0.77;0.32;;;;;;;16.31;100.00;100167.13;10416036;28;97333;-82
2024/01/15 10:41:04;;;;;;;1.08;0.60;;;;;;;16.40;100.00;100163.94;10430243;27;96712;-81
2024/01/15 10:46:11;;;;;;;1.98;0.60;;;;;;;16.41;100.00;100166.50;10457435;27;97181;-83
2024/01/15 10:51:16;;;;;;;1.17;0.60;;;;;;;16.32;100.00;100187.44;10457461;27;97357;-82
2024/01/15 10:56:23;;;;;;;1.35;0.50;;;;;;;16.28;100.00;100168.22;10457384;27;96698;-79
2024/01/15 11:01:29;;;;;;;1.27;0.57;;;;;;;16.20;100.00;100185.59;10456022;27;96852;-79
2024/01/15 11:06:46;;;;;;;1.92;0.73;;;;;;;16.22;100.00;100163.28;10455672;27;96856;-80
2024/01/15 11:11:54;;;;;;;0.80;0.60;;;;;;;16.22;100.00;100162.44;10456983;27;96670;-79
2024/01/15 11:17:00;;;;;;;1.00;0.60;;;;;;;16.20;100.00;100149.28;10456262;27;96598;-80
2024/01/15 11:22:05;;;;;;;1.15;0.60;;;;;;;16.21;100.00;100139.47;10456272;27;97537;-82
2024/01/15 11:27:09;;;;;;;1.88;0.80;;;;;;;16.32;100.00;100140.50;10455915;27;96648;-79
2024/01/15 11:32:17;;;;;;;2.47;1.20;;;;;;;16.44;100.00;100147.72;10456674;27;97404;-81
2024/01/15 11:37:23;;;;;;;2.05;0.73;;;;;;;16.47;100.00;100142.19;10414854;28;96827;-81
2024/01/15 11:42:29;;;;;;;2.30;1.00;;;;;;;16.47;100.00;100128.06;10442833;27;97144;-83
2024/01/15 11:48:11;;;;;;;2.00;0.80;;;;;;;16.66;100.00;100120.56;10455283;27;96894;-81
2024/01/15 11:53:35;;;;;;;2.13;0.40;;;;;;;16.71;100.00;100100.72;10437398;27;96628;-82
2024/01/15 11:58:38;;;;;;;3.33;1.13;;;;;;;16.70;100.00;100085.75;10455217;27;96684;-82
2024/01/15 12:03:42;;;;;;;2.58;1.00;;;;;;;16.94;100.00;100076.09;10455522;27;97032;-83
2024/01/15 12:08:47;;;;;;;1.15;0.75;;;;;;;16.99;100.00;100055.38;10454745;27;96787;-82
2024/01/15 12:13:52;;;;;;;1.60;0.73;;;;;;;16.88;100.00;100052.59;10454947;27;96894;-81
2024/01/15 12:18:58;;;;;;;1.52;0.60;;;;;;;16.90;100.00;100047.16;10454389;27;97496;-82
2024/01/15 12:24:03;;;;;;;6.15;1.25;;;;;;;16.81;100.00;100039.81;10454312;27;96709;-81
2024/01/15 12:29:08;;;;;;;1.05;0.73;;;;;;;16.73;100.00;100036.84;10455028;27;96683;-83
2024/01/15 12:34:20;;;;;;;1.75;0.90;;;;;;;16.67;100.00;100038.09;10454218;27;96733;-83
2024/01/15 12:39:25;;;;;;;0.90;0.60;;;;;;;16.69;100.00;100030.03;10453914;27;96729;-79
2024/01/15 12:44:29;;;;;;;2.05;1.10;;;;;;;16.61;100.00;99993.38;10452310;27;96835;-79
2024/01/15 12:49:33;;;;;;;1.30;1.00;;;;;;;16.52;100.00;99986.03;10453462;27;98341;-80
2024/01/15 12:54:38;;;;;;;1.00;0.90;;;;;;;16.49;100.00;99990.69;10453701;27;96718;-80
2024/01/15 12:59:41;;;;;;;1.90;1.05;;;;;;;16.46;100.00;99991.72;10453285;27;96762;-81
2024/01/15 13:04:45;;;;;;;2.75;1.60;;;;;;;16.33;100.00;99974.03;10453466;27;97159;-83
2024/01/15 13:09:53;;;;;;;13.02;1.98;;;;;;;16.20;100.00;99963.44;10453553;27;96706;-83
2024/01/15 13:14:58;;;;;;;2.53;1.35;;;;;;;16.17;100.00;99958.28;10452306;27;96672;-82
2024/01/15 13:20:02;;;;;;;3.33;1.25;;;;;;;16.15;100.00;99962.03;10454167;27;97090;-83
2024/01/15 13:25:11;;;;;;;2.58;1.58;;;;;;;16.18;100.00;99930.81;10453582;27;97108;-80
2024/01/15 13:30:15;;;;;;;3.08;1.25;;;;;;;16.17;100.00;99915.00;10456970;27;96814;-81
2024/01/15 13:35:19;;;;;;;2.67;1.20;;;;;;;16.12;100.00;99940.97;10461268;27;96973;-81
2024/01/15 13:40:24;;;;;;;2.60;1.40;;;;;;;16.17;100.00;99942.38;10492117;27;96698;-80
2024/01/15 13:45:28;;;;;;;2.28;1.00;;;;;;;16.11;100.00;99907.44;10452465;27;99606;-80
2024/01/15 13:50:33;;;;;;;0.75;0.50;;;;;;;16.12;100.00;99911.78;10417374;28;97189;-80
2024/01/15 13:55:38;;;;;;;1.20;0.77;;;;;;;16.28;100.00;99909.78;10417103;28;97464;-81
2024/01/15 14:00:43;;;;;;;1.58;1.10;;;;;;;16.46;100.00;99896.13;10417020;28;97151;-84
2024/01/15 14:05:54;;;;;;;1.23;0.85;;;;;;;16.51;100.00;99909.97;10416676;28;97183;-84
2024/01/15 14:11:01;;;;;;;1.30;1.10;;;;;;;16.51;100.00;99909.09;10417295;28;96893;-83
2024/01/15 14:16:05;;;;;;;1.60;0.95;;;;;;;16.48;100.00;99917.28;10415941;28;96931;-81
2024/01/15 14:21:08;;;;;;;2.03;1.20;;;;;;;16.37;100.00;99911.81;10416189;28;96775;-83
2024/01/15 14:26:13;;;;;;;2.17;1.30;;;;;;;16.36;100.00;99918.94;10414808;28;97349;-81
2024/01/15 14:31:28;;;;;;;2.30;0.93;;;;;;;16.38;100.00;99924.13;10415944;28;96749;-84
2024/01/15 14:36:32;;;;;;;1.23;0.93;;;;;;;16.48;100.00;99912.81;10415848;27;96639;-84
2024/01/15 14:41:37;;;;;;;0.77;0.57;;;;;;;16.66;100.00;99924.81;10414372;27;97393;-84
2024/01/15 14:46:42;;;;;;;2.88;2.00;;;;;;;16.90;100.00;99922.25;10431198;27;96770;-83
2024/01/15 14:51:52;;;;;;;2.15;1.13;;;;;;;16.91;100.00;99914.16;10458024;27;97228;-83
2024/01/15 14:56:57;;;;;;;1.92;0.70;;;;;;;16.91;100.00;99923.97;10456786;27;97534;-81
2024/01/15 15:02:00;;;;;;;0.30;0.25;;;;;;;16.95;100.00;99912.13;10458036;27;97505;-83
2024/01/15 15:07:06;;;;;;;0.82;0.40;;;;;;;17.09;100.00;99922.63;10456964;27;96964;-83
2024/01/15 15:12:11;;;;;;;0.65;0.30;;;;;;;17.23;100.00;99918.97;10456563;27;96651;-83
2024/01/15 15:17:15;;;;;;;0.73;0.30;;;;;;;17.19;100.00;99913.03;10454795;27;96901;-84
2024/01/15 15:22:23;;;;;;;0.57;0.38;;;;;;;17.30;100.00;99929.09;10456383;27;96782;-83
2024/01/15 15:27:29;;;;;;;0.43;0.30;;;;;;;17.29;100.00;99924.72;10456177;27;97250;-83
2024/01/15 15:32:33;;;;;;;0.75;0.40;;;;;;;17.34;100.00;99927.91;10455629;27;96732;-83
2024/01/15 15:37:37;;;;;;;0.77;0.67;;;;;;;17.28;100.00;99931.00;10455923;27;96665;-83
2024/01/15 15:42:42;;;;;;;0.47;0.40;;;;;;;17.24;100.00;99948.16;10455596;27;97002;-82
2024/01/15 15:47:45;;;;;;;0.30;0.20;;;;;;;17.29;100.00;99948.66;10455083;27;97217;-82
2024/01/15 15:52:49;;;;;;;0.70;0.32;;;;;;;17.24;100.00;99952.63;10455702;27;96702;-82
2024/01/15 15:57:54;;;;;;;0.35;0.30;;;;;;;17.13;100.00;99955.19;10454945;27;96865;-82
2024/01/15 16:02:57;;;;;;;1.98;0.40;;;;;;;17.06;100.00;99968.06;10454901;27;96786;-82
2024/01/15 16:08:01;;;;;;;1.83;0.52;;;;;;;16.98;100.00;99973.91;10453699;27;97302;-82
2024/01/15 16:13:06;;;;;;;0.80;0.50;;;;;;;16.97;100.00;99972.22;10454864;27;97236;-83
2024/01/15 16:18:09;;;;;;;1.85;0.40;;;;;;;16.93;100.00;99978.69;10454701;27;97271;-82
2024/01/15 16:23:34;;;;;;;1.17;0.40;;;;;;;16.85;100.00;99986.38;10450999;27;96894;-83
2024/01/15 16:28:59;;;;;;;0.65;0.40;;;;;;;16.84;100.00;99987.31;10454761;27;96688;-81
2024/01/15 16:34:06;;;;;;;0.93;0.47;;;;;;;16.83;100.00;99987.41;10454226;27;96657;-82
2024/01/15 16:39:13;;;;;;;0.57;0.38;;;;;;;16.78;100.00;99997.50;10453997;27;96995;-82
2024/01/15 16:44:18;;;;;;;0.55;0.45;;;;;;;16.73;100.00;100002.28;10412505;28;96751;-80
2024/01/15 16:49:22;;;;;;;0.77;0.45;;;;;;;16.72;100.00;100003.28;10449346;27;96793;-79
2024/01/15 16:54:26;;;;;;;0.82;0.50;;;;;;;16.72;100.00;100003.28;10453768;27;96826;-80
2024/01/15 16:59:30;;;;;;;1.00;0.52;;;;;;;16.71;100.00;99998.88;10452486;27;96938;-82
2024/01/15 17:04:34;;;;;;;0.60;0.50;;;;;;;16.64;100.00;100009.09;10456878;27;96685;-82
2024/01/15 17:09:37;;;;;;;0.95;0.55;;;;;;;16.66;100.00;100016.97;10436076;27;96775;-81
2024/01/15 17:14:45;;;;;;;1.75;1.00;;;;;;;16.62;100.00;100021.63;10458592;27;96823;-81
2024/01/15 17:19:48;;;;;;;1.35;0.95;;;;;;;16.61;100.00;100016.41;10460570;27;97124;-82
2024/01/15 17:24:51;;;;;;;1.88;1.20;;;;;;;16.60;100.00;100026.19;10460600;27;97504;-82
2024/01/15 17:29:59;;;;;;;2.45;0.90;;;;;;;16.58;100.00;100022.81;10459956;27;97428;-81
2024/01/15 17:35:03;;;;;;;2.17;1.15;;;;;;;16.55;100.00;100030.13;10460977;27;96841;-83
2024/01/15 17:40:12;;;;;;;1.15;0.80;;;;;;;16.52;100.00;100036.50;10459672;27;97246;-82
2024/01/15 17:45:19;;;;;;;1.08;0.80;;;;;;;16.52;100.00;100038.28;10459193;27;97501;-83
2024/01/15 17:50:23;;;;;;;1.15;0.82;;;;;;;16.50;100.00;100041.03;10458483;27;97036;-82
2024/01/15 17:55:28;;;;;;;1.10;0.80;;;;;;;16.51;100.00;100044.56;10459020;27;96857;-82
2024/01/15 18:00:37;;;;;;;1.45;0.68;;;;;;;16.49;100.00;100043.81;10458849;27;96857;-82
2024/01/15 18:05:42;;;;;;;2.03;1.08;;;;;;;16.48;100.00;100055.41;10458682;27;97516;-82
2024/01/15 18:10:47;;;;;;;1.60;1.10;;;;;;;16.45;100.00;100051.13;10458847;27;97082;-81
2024/01/15 18:15:58;;;;;;;2.03;1.27;;;;;;;16.47;100.00;100059.84;10458468;27;97741;-81
2024/01/15 18:21:03;;;;;;;1.25;1.10;;;;;;;16.46;100.00;100058.13;10458695;27;96835;-81
2024/01/15 18:26:07;;;;;;;3.17;1.52;;;;;;;16.48;100.00;100066.84;10459179;27;97081;-81
2024/01/15 18:31:15;;;;;;;2.13;1.48;;;;;;;16.46;100.00;100068.75;10458635;27;97646;-81
2024/01/15 18:36:25;;;;;;;1.90;1.30;;;;;;;16.50;100.00;100077.38;10458186;27;96758;-81
2024/01/15 18:41:29;;;;;;;2.22;1.60;;;;;;;16.52;100.00;100080.78;10456515;27;96816;-81
2024/01/15 18:46:35;;;;;;;2.05;1.48;;;;;;;16.50;100.00;100082.69;10441881;27;96967;-82
2024/01/15 18:51:40;;;;;;;2.15;1.48;;;;;;;16.54;100.00;100097.47;10415541;28;96809;-83
2024/01/15 18:56:45;;;;;;;1.95;1.35;;;;;;;16.54;100.00;100098.34;10415123;27;96748;-82
2024/01/15 19:01:52;;;;;;;3.10;1.95;;;;;;;16.58;100.00;100101.66;10408020;28;96848;-82
2024/01/15 19:06:57;;;;;;;4.53;2.72;;;;;;;16.56;100.00;100101.75;10386635;28;97631;-82
2024/01/15 19:12:04;;;;;;;4.45;2.58;;;;;;;16.47;100.00;100101.50;10414809;27;96791;-82
2024/01/15 19:17:10;;;;;;;6.18;3.17;;;;;;;16.43;100.00;100107.97;10415347;28;96784;-82
2024/01/15 19:22:14;;;;;;;5.13;3.00;;;;;;;16.44;100.00;100096.41;10414261;28;96748;-82
2024/01/15 19:27:19;;;;;;;5.15;3.35;;;;;;;16.37;100.00;100092.41;10413648;28;96890;-82
2024/01/15 19:32:27;;;;;;;4.28;3.03;;;;;;;16.40;100.00;100098.41;10412856;27;96837;-81
2024/01/15 19:37:31;;;;;;;4.13;3.00;;;;;;;16.42;100.00;100095.63;10413925;28;96777;-81
2024/01/15 19:42:35;;;;;;;5.78;3.58;;;;;;;16.39;100.00;100095.81;10413266;27;96725;-81
2024/01/15 19:47:43;;;;;;;5.43;3.87;;;;;;;16.37;100.00;100095.91;10437344;27;96755;-81
2024/01/15 19:52:49;;;;;;;5.63;3.75;;;;;;;16.36;100.00;100098.69;10455426;27;96706;-81
2024/01/15 19:57:54;;;;;;;5.45;3.60;;;;;;;16.33;100.00;100098.84;10455621;27;96662;-81
2024/01/15 20:03:01;;;;;;;6.32;3.55;;;;;;;16.27;100.00;100101.94;10455206;27;96845;-81
2024/01/15 20:08:07;;;;;;;3.55;2.70;;;;;;;16.21;100.00;100100.53;10455821;27;97310;-81
2024/01/15 20:13:11;;;;;;;4.32;2.78;;;;;;;16.22;100.00;100098.72;10455037;27;96712;-81
2024/01/15 20:18:15;;;;;;;6.30;4.10;;;;;;;16.26;100.00;100105.50;10454610;27;96906;-81
2024/01/15 20:23:19;;;;;;;5.97;4.10;;;;;;;16.29;100.00;100108.00;10453440;27;96690;-80
2024/01/15 20:28:23;;;;;;;5.65;3.70;;;;;;;16.25;100.00;100107.34;10454245;27;96621;-81
2024/01/15 20:33:28;;;;;;;4.93;3.50;;;;;;;16.26;100.00;100110.81;10454383;27;96739;-81
2024/01/15 20:38:31;;;;;;;5.25;3.75;;;;;;;16.25;100.00;100115.31;10457844;27;96906;-80
2024/01/15 20:43:35;;;;;;;6.90;4.40;;;;;;;16.25;100.00;100114.44;10461525;27;96654;-81
2024/01/15 20:48:40;;;;;;;6.55;4.28;;;;;;;16.23;100.00;100111.03;10428057;27;96961;-81
2024/01/15 20:53:43;;;;;;;6.30;4.65;;;;;;;16.23;100.00;100109.25;10419140;27;97544;-80
2024/01/15 20:58:47;;;;;;;7.05;4.35;;;;;;;16.25;100.00;100111.78;10419847;27;97752;-80
2024/01/15 21:03:52;;;;;;;7.60;4.75;;;;;;;16.25;100.00;100111.78;10397774;28;96822;-80
2024/01/15 21:08:55;;;;;;;8.43;5.10;;;;;;;16.20;100.00;100112.09;10377180;28;96619;-80
2024/01/15 21:13:59;;;;;;;9.30;5.88;;;;;;;16.15;100.00;100113.34;10407003;28;96725;-81
2024/01/15 21:19:03;;;;;;;10.40;6.28;;;;;;;16.18;100.00;100108.69;10418370;27;97130;-80
2024/01/15 21:24:08;;;;;;;10.18;6.63;;;;;;;16.19;100.00;100110.38;10418328;28;97162;-80
2024/01/15 21:29:11;;;;;;;12.27;6.47;;;;;;;16.16;100.00;100107.94;10417466;28;96994;-80
2024/01/15 21:34:18;;;;;;;12.02;6.88;;;;;;;16.17;100.00;100106.13;10400857;28;96648;-80
2024/01/15 21:39:22;;;;;;;12.90;8.00;;;;;;;16.13;100.00;100094.00;10415736;28;96778;-80
2024/01/15 21:44:25;;;;;;;16.55;10.00;;;;;;;16.16;100.00;100088.50;10417390;27;96680;-80
2024/01/15 21:49:30;;;;;;;12.23;6.28;;;;;;;16.11;100.00;100087.94;10457241;27;96863;-80
2024/01/15 21:54:34;;;;;;;11.35;6.53;;;;;;;16.05;100.00;100091.00;10459565;27;96609;-80
2024/01/15 21:59:38;;;;;;;10.32;6.63;;;;;;;16.00;100.00;100091.28;10459423;27;96874;-80
2024/01/15 22:04:43;;;;;;;13.85;7.65;;;;;;;16.04;100.00;100097.25;10458127;27;97126;-80
2024/01/15 22:09:47;;;;;;;14.23;6.65;;;;;;;16.05;100.00;100105.09;10458828;27;97071;-80
2024/01/15 22:14:50;;;;;;;11.80;6.75;;;;;;;16.03;100.00;100100.88;10466194;22;96775;-80
2024/01/15 22:19:57;;;;;;;12.10;6.53;;;;;;;16.08;100.00;100102.28;10388138;28;96973;-80
2024/01/15 22:25:01;;;;;;;;;;;;;;;16.07;100.00;100091.72;10416692;28;96743;-80
2024/01/15 22:30:05;;;;;;;13.82;7.90;;;;;;;16.05;100.00;100091.84;10417275;28;96878;-80
2024/01/15 22:35:11;;;;;;;;;;;;;;;16.03;100.00;100083.13;10416656;28;96616;-80
2024/01/15 22:40:16;;;;;;;10.48;6.18;;;;;;;16.04;100.00;100091.94;10416680;28;96741;-80
2024/01/15 22:45:19;;;;;;;11.82;6.28;;;;;;;16.00;100.00;100087.75;10415384;28;97289;-80
2024/01/15 22:50:24;;;;;;;11.15;6.65;;;;;;;16.05;100.00;100091.00;10415420;28;96872;-80
2024/01/15 22:55:28;;;;;;;11.90;6.57;;;;;;;16.06;100.00;100090.03;10413834;28;97139;-80
2024/01/15 23:00:32;;;;;;;11.02;6.47;;;;;;;16.06;100.00;100080.28;10413177;27;97294;-80
2024/01/15 23:05:37;;;;;;;10.68;5.97;;;;;;;16.09;100.00;100082.72;10414983;28;96768;-80
2024/01/15 23:10:41;;;;;;;10.05;5.82;;;;;;;16.08;100.00;100080.19;10414781;28;96718;-80